Flight Track Log - Related Links

Times and Time Zones

All times are in EDT time to prevent confusion due to time zone crossing. See the GJS6271 flight status page for this flight to view local times or setup timezone preferences in your user account.

Time Position Orientation Groundspeed Altitude Reporting Facility
EDT Latitude Longitude Course Direction KTS MPH feet Rate Location/Type
Tue 07:01:43 PM 40.7447 -73.8389 270° West 152 175 2,000  Level New York Center
Tue 07:02:42 PM 40.7272 -73.7914 116° Southeast 226 260 4,100 2,508 Climbing New York Center
Tue 07:03:45 PM 40.8000 -73.8167 345° North 256 295 7,100 1,902 Climbing New York TRACON
Tue 07:04:45 PM 40.8500 -73.8833 315° West 262 302 8,000 600 Climbing New York TRACON
Tue 07:05:45 PM 40.9000 -73.9500 315° West 273 314 8,300 1,500 Climbing New York TRACON
Tue 07:06:45 PM 40.9000 -74.0500 270° West 291 335 11,000 2,050 Climbing New York TRACON
Tue 07:07:00 PM 40.7833 -74.6774 270° West  Level FlightAware Approximate
Tue 07:07:45 PM 40.8833 -74.1667 259° West 325 374 12,400  Level New York TRACON
Tue 07:08:39 PM 40.8833 -74.2833 270° West 380 437 13,300 1,322 Climbing New York TRACON
Tue 07:09:43 PM 40.8678 -74.4150 261° West 419 482 15,000 1,721 Climbing New York Center
Tue 07:10:41 PM 40.8544 -74.5761 264° West 435 501 16,800 1,119 Climbing New York Center
Tue 07:11:41 PM 40.8419 -74.7072 263° West 416 479 17,200 1,082 Climbing New York Center
Tue 07:12:43 PM 40.8278 -74.8736 264° West 416 479 19,000 1,587 Climbing New York Center
Tue 07:13:42 PM 40.8142 -75.0236 263° West 416 479 20,400 1,350 Climbing New York Center
Tue 07:14:43 PM 40.7983 -75.1733 262° West 416 479 21,700 1,210 Climbing New York Center
Tue 07:15:41 PM 40.7742 -75.3117 257° West 427 491 22,800 1,059 Climbing New York Center
Tue 07:16:42 PM 40.7372 -75.4597 252° West 427 491 23,800 984 Climbing New York Center
Tue 07:17:43 PM 40.6836 -75.6039 244° Southwest 433 498 24,800 900 Climbing New York Center
Tue 07:18:42 PM 40.6297 -75.7478 244° Southwest 443 510 25,600 800 Climbing New York Center
Tue 07:19:43 PM 40.5731 -75.8994 244° Southwest 454 522 26,400 908 Climbing New York Center
Tue 07:20:41 PM 40.5075 -76.0667 243° Southwest 459 528 27,400 1,462 Climbing New York Center
Tue 07:21:42 PM 40.4486 -76.2119 242° Southwest 459 528 29,300 1,300 Climbing New York Center
Tue 07:22:41 PM 40.3964 -76.3525 244° Southwest 446 513 30,000 347 Climbing New York Center
Tue 07:23:43 PM 40.3414 -76.4950 243° Southwest 440 506 30,000  Level New York Center
Tue 07:24:41 PM 40.2847 -76.6319 242° Southwest 440 506 30,000  Level New York Center
Tue 07:25:42 PM 40.2319 -76.7717 244° Southwest 440 506 30,000 -50 Level New York Center
Tue 07:26:41 PM 40.1747 -76.9106 242° Southwest 440 506 29,900 -600 Descending New York Center
Tue 07:27:42 PM 40.1197 -77.0469 242° Southwest 440 506 28,800 -1,033 Descending New York Center
Tue 07:28:43 PM 40.0811 -77.1819 250° West 435 501 27,800 -1,300 Descending New York Center
Tue 07:29:42 PM 40.0583 -77.3317 259° West 424 488 26,200 -1,467 Descending New York Center
Tue 07:30:13 PM 40.0500 -77.3953 260° West 419 482 25,600 -1,355 Descending Cleveland Center
Tue 07:31:15 PM 40.0286 -77.5428 259° West 418 481 24,100 -1,597 Descending Cleveland Center
Tue 07:32:17 PM 40.0044 -77.7189 260° West 414 476 22,300 -1,024 Descending Cleveland Center
Tue 07:33:18 PM 40.0019 -77.8606 269° West 401 461 22,000 -146 Descending Cleveland Center
Tue 07:34:20 PM 40.0169 -78.0008 278° West 391 450 22,000  Level Cleveland Center
Tue 07:35:21 PM 40.0325 -78.1439 278° West 396 456 22,000 -390 Level Cleveland Center
Tue 07:36:23 PM 40.0494 -78.3011 278° West 396 456 21,200 -968 Descending Cleveland Center
Tue 07:37:25 PM 40.0642 -78.4397 278° West 393 452 20,000 -1,122 Descending Cleveland Center
Tue 07:38:26 PM 40.0783 -78.5706 278° West 372 428 18,900 -1,073 Descending Cleveland Center
Tue 07:39:28 PM 40.0919 -78.7011 278° West 366 421 17,800 -1,065 Descending Cleveland Center
Tue 07:40:30 PM 40.1064 -78.8333 278° West 367 422 16,700 -1,073 Descending Cleveland Center
Tue 07:41:31 PM 40.1194 -78.9642 277° West 367 422 15,600 -1,065 Descending Cleveland Center
Tue 07:42:34 PM 40.1325 -79.0883 278° West 352 405 14,500 -1,161 Descending Cleveland Center
Tue 07:43:35 PM 40.1475 -79.2350 278° West 343 395 13,200 -1,230 Descending Cleveland Center
Tue 07:44:36 PM 40.1589 -79.3589 277° West 345 397 12,000 -1,122 Descending Cleveland Center
Tue 07:45:38 PM 40.1728 -79.4806 279° West 343 395 10,900 -968 Descending Cleveland Center
Tue 07:46:40 PM 40.2278 -79.5797 306° West 337 388 10,000 -435 Descending Cleveland Center
Tue 07:47:42 PM 40.2839 -79.6775 307° West 337 388 10,000 -634 Level Cleveland Center
Tue 07:48:43 PM 40.3303 -79.7572 307° West 299 344 8,700 -1,366 Descending Cleveland Center
Tue 07:49:45 PM 40.3753 -79.8353 307° West 281 323 7,200 -1,597 Descending Cleveland Center
Tue 07:50:47 PM 40.4297 -79.9300 307° West 275 316 5,400 -2,000 Descending Cleveland Center
Tue 07:51:48 PM 40.4731 -80.0097 306° West 275 316 3,100 -1,220 Descending Cleveland Center
Tue 07:52:50 PM 40.4819 -80.0861 279° West 230 265 2,900 -484 Descending Cleveland Center
Tue 07:53:52 PM 40.4836 -80.1389 272° West 162 186 2,100 -774 Descending Cleveland Center
Tue 07:54:54 PM 40.4853 -80.1978 272° West 142 163 1,300 -774 Descending Cleveland Center

Login

Don't have an account? Register now (free) for customized features, flight alerts, and more!